Time;durP1;ratioP1;P1;durP2;ratioP2;P2;SDS_P1;SDS_P2;PMS_P1;PMS_P2;Temp;Humidity;BMP_temperature;BMP_pressure;BME280_temperature;BME280_humidity;BME280_pressure;Samples;Min_cycle;Max_cycle;Signal;HPM_P1;HPM_P2
2021/09/21 00:00:11;;;;;;;2.88;2.78;;;14.50;99.90;;;14.46;66.08;102599.00;4955318;29;20382;-69
2021/09/21 00:02:39;;;;;;;2.72;2.63;;;14.60;99.90;;;15.15;64.96;102691.84;4955255;29;20043;-69
2021/09/21 00:05:09;;;;;;;3.05;2.95;;;14.70;99.90;;;15.23;64.31;102690.13;4953952;29;20079;-68
2021/09/21 00:07:37;;;;;;;2.60;2.50;;;14.90;99.90;;;15.26;63.82;102695.47;4954937;29;20389;-69
2021/09/21 00:10:09;;;;;;;2.85;2.75;;;14.90;99.90;;;15.23;63.22;102666.13;4954893;29;20125;-69
2021/09/21 00:12:38;;;;;;;2.65;2.55;;;15.00;99.90;;;15.45;62.79;102691.16;4954923;29;20110;-69
2021/09/21 00:15:10;;;;;;;2.60;2.50;;;15.10;99.90;;;15.46;62.29;102692.94;4954645;29;20051;-69
2021/09/21 00:17:40;;;;;;;2.80;2.70;;;15.20;99.90;;;15.22;62.45;102648.34;4954830;29;20050;-69
2021/09/21 00:20:11;;;;;;;2.83;2.73;;;15.20;99.90;;;15.47;62.36;102697.38;4954752;29;20475;-69
2021/09/21 00:22:41;;;;;;;3.10;3.00;;;15.20;99.90;;;15.34;61.97;102677.72;4954996;29;20306;-69
2021/09/21 00:25:14;;;;;;;2.75;2.65;;;15.20;99.90;;;15.50;61.96;102697.41;4955300;29;20444;-69
2021/09/21 00:27:43;;;;;;;2.95;2.85;;;15.10;99.90;;;15.47;62.38;102706.28;4954912;29;20070;-69
2021/09/21 00:30:19;;;;;;;3.08;2.97;;;15.10;99.90;;;15.02;62.72;102626.91;4937533;29;20074;-69
2021/09/21 00:32:49;;;;;;;2.70;2.60;;;15.10;99.90;;;15.42;62.64;102700.03;4954566;29;20058;-69
2021/09/21 00:35:18;;;;;;;2.67;2.58;;;15.10;99.90;;;15.41;63.93;102698.19;4954506;29;20047;-69
2021/09/21 00:37:46;;;;;;;2.55;2.45;;;15.10;99.90;;;15.12;64.67;102690.03;4954317;29;20131;-69
2021/09/21 00:40:16;;;;;;;2.88;2.78;;;14.90;99.90;;;15.22;64.93;102704.31;4953124;28;20047;-69
2021/09/21 00:42:45;;;;;;;3.22;3.13;;;14.90;99.90;;;14.99;65.94;102696.19;4954320;29;20133;-69
2021/09/21 00:45:24;;;;;;;2.92;2.83;;;14.70;99.90;;;14.88;66.55;102700.56;4954322;29;20086;-68
2021/09/21 00:47:53;;;;;;;3.10;3.00;;;14.50;99.90;;;14.70;67.07;102697.75;4954813;29;20044;-69
2021/09/21 00:50:23;;;;;;;3.03;2.92;;;14.30;99.90;;;14.50;67.09;102698.47;4954823;29;20079;-69
2021/09/21 00:52:53;;;;;;;2.60;2.50;;;14.20;99.90;;;14.38;66.98;102713.44;4954501;29;20074;-69
2021/09/21 00:55:23;;;;;;;3.13;3.03;;;14.00;99.90;;;14.32;67.65;102716.03;4954189;29;20047;-69
2021/09/21 00:57:52;;;;;;;2.80;2.70;;;13.90;99.90;;;14.30;67.75;102708.94;4953150;29;20067;-69
2021/09/21 01:00:22;;;;;;;2.72;2.63;;;13.90;99.90;;;14.30;68.17;102711.59;4954113;29;20039;-68
2021/09/21 01:02:51;;;;;;;2.65;2.55;;;13.90;99.90;;;14.05;68.01;102672.25;4954085;29;20035;-68
2021/09/21 01:05:20;;;;;;;2.90;2.80;;;13.90;99.90;;;14.22;68.49;102713.25;4953918;29;20055;-69
2021/09/21 01:07:49;;;;;;;3.17;3.08;;;13.80;99.90;;;14.03;69.42;102693.50;4954288;29;20051;-68
2021/09/21 01:10:23;;;;;;;2.70;2.60;;;13.70;99.90;;;13.72;69.58;102671.88;4954256;29;20071;-68
2021/09/21 01:12:52;;;;;;;3.00;2.90;;;13.60;99.90;;;13.58;69.62;102667.31;4952927;29;20076;-68
2021/09/21 01:15:20;;;;;;;3.20;3.10;;;13.40;99.90;;;13.19;69.81;102623.38;4954063;29;20062;-68
2021/09/21 01:17:50;;;;;;;3.53;3.42;;;13.30;99.90;;;13.51;69.26;102683.16;4953892;29;20048;-68
2021/09/21 01:20:19;;;;;;;3.55;3.45;;;13.20;99.90;;;13.40;69.40;102685.66;4954096;29;20066;-68
2021/09/21 01:22:49;;;;;;;3.08;2.97;;;13.00;99.90;;;13.18;69.90;102677.41;4954020;29;20106;-69
2021/09/21 01:25:17;;;;;;;3.08;2.97;;;12.90;99.90;;;13.09;70.54;102667.53;4953867;29;20063;-68
2021/09/21 01:27:46;;;;;;;3.20;3.10;;;12.80;99.90;;;13.05;70.63;102663.03;4953832;29;20062;-68
2021/09/21 01:30:16;;;;;;;3.13;3.03;;;12.80;99.90;;;13.12;70.63;102664.94;4953794;29;20134;-68
2021/09/21 01:32:44;;;;;;;3.30;3.20;;;12.80;99.90;;;13.25;70.74;102658.91;4954104;29;20456;-69
2021/09/21 01:35:15;;;;;;;3.13;3.03;;;12.90;99.90;;;13.27;70.68;102667.78;4953846;29;20043;-68
2021/09/21 01:37:50;;;;;;;;;;;13.00;99.90;;;13.37;69.99;102674.13;4937265;29;20525;-68
2021/09/21 01:40:21;;;;;;;2.92;2.83;;;13.00;99.90;;;13.43;69.37;102676.84;4954321;29;19997;-68
2021/09/21 01:42:51;;;;;;;2.90;2.80;;;13.10;99.90;;;13.42;69.56;102683.94;4953789;29;20043;-68
2021/09/21 01:45:20;;;;;;;3.25;3.15;;;13.10;99.90;;;12.71;69.64;102557.16;4954176;29;20055;-68
2021/09/21 01:47:49;;;;;;;2.85;2.75;;;13.00;99.90;;;13.36;69.60;102673.22;4953738;29;20474;-68
2021/09/21 01:50:29;;;;;;;3.00;2.90;;;13.10;99.90;;;13.37;69.50;102661.72;4953807;29;20584;-68
2021/09/21 01:53:01;;;;;;;3.03;2.92;;;13.10;99.90;;;13.50;69.31;102676.94;4954365;28;20405;-68
2021/09/21 01:58:46;;;;;;;3.30;3.20;;;13.10;99.90;;;13.51;69.22;102677.84;4957732;29;20051;-68
2021/09/21 02:01:18;;;;;;;3.15;3.05;;;13.10;99.90;;;13.52;69.02;102700.88;4957846;29;20052;-69
2021/09/21 02:03:47;;;;;;;3.25;3.15;;;13.10;99.90;;;12.85;69.26;102547.63;4940086;29;20095;-68
2021/09/21 02:06:16;;;;;;;2.80;2.70;;;13.20;99.90;;;13.54;69.25;102678.78;4957386;29;20126;-68
2021/09/21 02:08:45;;;;;;;3.05;2.95;;;13.20;99.90;;;12.88;70.06;102554.72;4957680;29;20053;-68
2021/09/21 02:11:15;;;;;;;3.00;2.90;;;13.20;99.90;;;13.63;70.46;102677.97;4958065;29;20129;-68
2021/09/21 02:13:44;;;;;;;3.17;3.08;;;13.20;99.90;;;13.61;70.45;102689.50;4940532;29;20098;-69
2021/09/21 02:16:12;;;;;;;2.90;2.80;;;13.20;99.90;;;13.54;70.11;102668.13;4957538;29;20130;-68
2021/09/21 02:18:41;;;;;;;2.95;2.85;;;13.20;99.90;;;13.50;70.32;102678.72;4956038;29;20102;-68
2021/09/21 02:21:09;;;;;;;3.35;3.25;;;13.20;99.90;;;13.48;70.48;102688.44;4957081;29;20086;-68
2021/09/21 02:23:37;;;;;;;3.03;2.92;;;13.10;99.90;;;13.58;70.69;102683.25;4957165;29;20047;-69
2021/09/21 02:26:06;;;;;;;3.55;3.42;;;13.20;99.90;;;13.53;70.96;102679.63;4955862;29;20051;-69
2021/09/21 02:28:36;;;;;;;3.10;3.00;;;13.20;99.90;;;13.51;71.40;102684.03;4956954;29;20077;-69
2021/09/21 02:31:05;;;;;;;3.35;3.25;;;13.20;99.90;;;13.42;71.53;102683.94;4956903;29;20383;-69
2021/09/21 02:33:33;;;;;;;3.35;3.25;;;13.10;99.90;;;13.40;72.07;102679.47;4956827;29;20051;-69
2021/09/21 02:36:02;;;;;;;3.35;3.25;;;13.10;99.90;;;13.40;72.07;102683.00;4939732;29;20093;-69
2021/09/21 02:38:30;;;;;;;3.47;3.38;;;13.00;99.90;;;13.39;71.76;102686.53;4956743;29;20047;-69
2021/09/21 02:40:59;;;;;;;3.20;3.10;;;13.00;99.90;;;13.37;71.91;102698.03;4956612;29;20106;-69
2021/09/21 02:43:27;;;;;;;3.38;3.28;;;13.00;99.90;;;13.38;72.21;102690.06;4956783;29;20130;-69
2021/09/21 02:46:00;;;;;;;3.42;3.33;;;13.00;99.90;;;13.38;72.40;102692.75;4956940;29;20066;-69
2021/09/21 02:48:29;;;;;;;3.15;3.05;;;13.00;99.90;;;13.38;72.29;102698.06;4956585;29;20067;-69
2021/09/21 02:50:58;;;;;;;3.35;3.25;;;13.00;99.90;;;13.41;72.31;102694.56;4955312;29;20102;-69
2021/09/21 02:53:27;;;;;;;3.20;3.10;;;13.00;99.90;;;13.40;72.52;102704.28;4956326;29;20133;-69
2021/09/21 02:55:55;;;;;;;3.10;3.00;;;13.10;99.90;;;13.43;72.45;102706.97;4956610;29;20557;-69
2021/09/21 02:58:24;;;;;;;3.63;3.50;;;13.10;99.90;;;13.49;72.90;102707.06;4956592;29;20053;-69
2021/09/21 03:00:55;;;;;;;3.00;2.90;;;13.10;99.90;;;13.51;73.10;102710.63;4955124;29;20496;-69
2021/09/21 03:03:29;;;;;;;3.20;3.10;;;13.10;99.90;;;13.53;72.83;102714.19;4955744;28;20482;-69
2021/09/21 03:06:01;;;;;;;3.33;3.22;;;13.20;99.90;;;13.49;73.59;102715.03;4955645;29;20055;-69
2021/09/21 03:08:32;;;;;;;2.92;2.83;;;13.10;99.90;;;13.56;73.50;102708.03;4956625;29;20047;-69
2021/09/21 03:11:15;;;;;;;2.95;2.85;;;13.20;99.90;;;13.49;73.08;102717.69;4955027;29;20489;-69
2021/09/21 03:17:05;;;;;;;3.10;3.00;;;13.10;99.90;;;13.46;72.97;102715.00;4955974;29;20122;-69
2021/09/21 03:19:30;;;;;;;3.53;3.42;;;13.10;99.90;;;12.70;72.46;102588.13;4955856;29;20047;-69
2021/09/21 03:21:58;;;;;;;2.92;2.83;;;13.10;99.90;;;13.36;72.89;102721.06;4956071;29;20051;-69
2021/09/21 03:24:27;;;;;;;3.28;3.17;;;13.00;99.90;;;13.41;73.27;102718.47;4955643;29;20118;-69
2021/09/21 03:26:55;;;;;;;3.65;3.55;;;13.00;99.90;;;13.45;73.02;102718.50;4955734;29;20051;-69
2021/09/21 03:29:24;;;;;;;3.35;3.25;;;13.10;99.90;;;13.45;73.10;102715.84;4955588;29;20051;-69
2021/09/21 03:31:52;;;;;;;3.10;3.00;;;13.10;99.90;;;13.33;72.50;102721.03;4955578;29;20042;-69
2021/09/21 03:34:20;;;;;;;3.00;2.90;;;13.00;99.90;;;13.37;72.73;102728.19;4956123;29;20047;-69
2021/09/21 03:36:50;;;;;;;2.97;2.88;;;13.10;99.90;;;13.47;72.99;102731.84;4954428;29;20086;-69
2021/09/21 03:39:19;;;;;;;2.87;2.77;;;13.10;99.90;;;13.48;73.11;102731.88;4956342;29;20145;-69
2021/09/21 03:41:47;;;;;;;3.40;3.30;;;13.10;99.90;;;13.06;73.13;102662.19;4955413;29;20043;-69
2021/09/21 03:44:15;;;;;;;3.20;3.10;;;13.10;99.90;;;13.12;73.59;102672.00;4955225;29;20069;-69
2021/09/21 03:46:44;;;;;;;3.35;3.25;;;13.20;99.90;;;13.56;73.76;102747.91;4938052;29;20051;-69
2021/09/21 03:49:12;;;;;;;3.38;3.28;;;13.20;99.90;;;13.53;73.19;102751.44;4955248;29;20050;-69
2021/09/21 03:51:41;;;;;;;3.00;2.90;;;13.20;99.90;;;13.43;72.70;102743.31;4955591;29;20047;-69
2021/09/21 03:54:11;;;;;;;3.40;3.30;;;13.10;99.90;;;13.39;71.98;102750.31;4955769;29;20051;-69
2021/09/21 03:56:40;;;;;;;3.00;2.90;;;13.10;99.90;;;13.35;71.97;102755.59;4955232;29;20065;-70
2021/09/21 03:59:09;;;;;;;2.90;2.80;;;13.00;99.90;;;13.33;72.62;102766.22;4955127;29;20074;-69
2021/09/21 04:01:38;;;;;;;3.15;3.05;;;13.00;99.90;;;13.23;72.80;102755.41;4954037;29;20497;-69
2021/09/21 04:04:07;;;;;;;2.90;2.80;;;12.90;99.90;;;13.04;71.81;102756.91;4937907;29;20482;-69
2021/09/21 04:06:35;;;;;;;3.30;3.20;;;12.80;99.90;;;12.86;72.03;102727.34;4954993;29;20039;-72
2021/09/21 04:09:04;;;;;;;3.00;2.90;;;12.70;99.90;;;12.81;72.40;102722.84;4954903;29;20127;-73
2021/09/21 04:11:34;;;;;;;3.03;2.92;;;12.60;99.90;;;12.68;71.56;102754.50;4953867;29;20058;-67
2021/09/21 04:14:02;;;;;;;3.43;3.33;;;12.40;99.90;;;12.48;71.25;102777.16;4937685;29;20373;-68
2021/09/21 04:16:31;;;;;;;8.00;7.45;;;12.20;99.90;;;12.40;71.79;102751.31;4954794;28;20079;-68
2021/09/21 04:18:59;;;;;;;3.78;3.60;;;12.10;99.90;;;12.31;71.48;102752.03;4954885;29;20067;-68
2021/09/21 04:21:28;;;;;;;3.00;2.90;;;12.00;99.90;;;12.15;71.24;102757.03;4954733;29;20047;-69
2021/09/21 04:23:57;;;;;;;3.15;3.05;;;11.80;99.90;;;12.24;71.56;102767.81;4954600;29;20122;-68
2021/09/21 04:26:26;;;;;;;3.42;3.33;;;11.90;99.90;;;12.22;71.81;102748.31;4954679;29;20143;-68
2021/09/21 04:28:55;;;;;;;3.22;3.13;;;11.90;99.90;;;12.28;71.74;102775.88;4953671;29;20057;-68
2021/09/21 04:31:26;;;;;;;3.40;3.30;;;11.90;99.90;;;12.16;71.30;102748.19;4955060;29;20051;-68
2021/09/21 04:33:56;;;;;;;2.90;2.80;;;11.90;99.90;;;12.27;71.27;102757.28;4954574;29;20540;-68
2021/09/21 04:36:24;;;;;;;3.83;3.65;;;12.00;99.90;;;12.36;71.17;102770.72;4954782;29;20055;-69
2021/09/21 04:38:53;;;;;;;3.15;3.05;;;12.00;99.90;;;12.11;71.27;102737.53;4953212;29;20102;-68
2021/09/21 04:41:21;;;;;;;3.33;3.22;;;12.10;99.90;;;12.36;72.29;102786.63;4937421;29;20043;-68
2021/09/21 04:43:50;;;;;;;3.33;3.22;;;12.10;99.90;;;12.45;72.56;102786.81;4954414;29;20057;-68
2021/09/21 04:46:19;;;;;;;3.42;3.33;;;12.10;99.90;;;12.38;73.10;102796.44;4954213;29;20139;-69
2021/09/21 04:48:48;;;;;;;3.50;3.40;;;12.10;99.90;;;12.43;73.44;102792.09;4954480;29;20087;-68
2021/09/21 04:51:16;;;;;;;3.20;3.10;;;12.00;99.90;;;11.63;73.50;102676.41;4954656;29;20082;-69
2021/09/21 04:53:45;;;;;;;3.40;3.30;;;12.00;99.90;;;12.26;74.73;102800.59;4954295;29;20047;-68
2021/09/21 04:56:13;;;;;;;3.20;3.10;;;11.90;99.90;;;12.31;74.73;102791.84;4953305;29;20421;-68
2021/09/21 04:58:42;;;;;;;3.35;3.25;;;12.00;99.90;;;12.42;74.50;102792.97;4954328;29;20043;-68
2021/09/21 05:01:10;;;;;;;3.17;3.08;;;12.00;99.90;;;12.52;73.73;102799.34;4954213;29;20043;-68
2021/09/21 05:03:40;;;;;;;3.30;3.20;;;12.10;99.90;;;12.54;73.51;102802.91;4937103;29;20162;-68
2021/09/21 05:06:09;;;;;;;3.53;3.42;;;12.20;99.90;;;12.52;73.52;102799.34;4954197;29;20076;-68
2021/09/21 05:08:37;;;;;;;3.20;3.10;;;12.20;99.90;;;12.59;73.21;102807.44;4954526;29;20051;-68
2021/09/21 05:11:05;;;;;;;3.90;3.70;;;12.30;99.90;;;12.24;72.85;102734.22;4954780;29;20067;-68
2021/09/21 05:13:34;;;;;;;3.63;3.50;;;12.30;99.90;;;12.67;72.57;102799.63;4954454;29;20047;-68
2021/09/21 05:16:02;;;;;;;3.78;3.60;;;12.40;99.90;;;12.60;72.53;102792.41;4954345;29;20099;-68
2021/09/21 05:18:31;;;;;;;3.35;3.25;;;12.40;99.90;;;12.75;72.82;102819.25;4954270;29;20567;-68
2021/09/21 05:21:00;;;;;;;3.58;3.47;;;12.40;99.90;;;12.59;73.79;102793.25;4954014;29;20083;-68
2021/09/21 05:23:29;;;;;;;3.50;3.40;;;12.40;99.90;;;12.67;73.63;102810.22;4954011;29;20501;-68
2021/09/21 05:25:58;;;;;;;3.25;3.15;;;12.40;99.90;;;12.63;73.50;102813.69;4954044;29;20397;-69
2021/09/21 05:28:27;;;;;;;3.42;3.33;;;12.30;99.90;;;12.40;73.81;102777.88;4956275;28;20043;-68
2021/09/21 05:30:55;;;;;;;3.00;2.90;;;12.30;99.90;;;12.47;74.21;102822.22;4958059;29;20398;-68
2021/09/21 05:33:26;;;;;;;3.28;3.17;;;12.10;99.90;;;12.20;74.77;102827.00;4956814;29;20102;-68
2021/09/21 05:35:54;;;;;;;3.35;3.25;;;11.90;99.90;;;12.24;75.06;102813.84;4958229;29;20175;-68
2021/09/21 05:38:24;;;;;;;3.72;3.58;;;11.90;99.90;;;12.14;74.68;102817.16;4957762;29;20514;-68
2021/09/21 05:40:52;;;;;;;3.87;3.67;;;11.80;99.90;;;12.05;74.70;102790.44;4957808;29;20047;-68
2021/09/21 05:43:21;;;;;;;3.88;3.67;;;11.90;99.90;;;12.36;74.67;102815.81;4957692;29;20082;-68
2021/09/21 05:45:49;;;;;;;4.03;3.83;;;11.90;99.90;;;12.52;74.25;102810.81;4956031;29;20366;-68
2021/09/21 05:48:17;;;;;;;4.07;3.88;;;12.10;99.90;;;12.12;73.89;102714.53;4957494;29;20122;-68
2021/09/21 05:50:46;;;;;;;3.20;3.10;;;12.30;99.90;;;12.78;73.63;102813.97;4957533;29;20043;-68
2021/09/21 05:53:14;;;;;;;3.35;3.25;;;12.40;99.90;;;12.78;73.48;102813.06;4957386;29;20474;-68
2021/09/21 05:55:45;;;;;;;3.55;3.45;;;12.40;99.90;;;12.37;73.04;102736.22;4957784;29;20043;-68
2021/09/21 05:58:15;;;;;;;3.30;3.20;;;12.50;99.90;;;12.89;73.10;102812.38;4957698;29;20047;-69
2021/09/21 06:00:43;;;;;;;3.50;3.40;;;12.60;99.90;;;13.03;72.35;102807.31;4957716;29;20110;-68
2021/09/21 06:03:12;;;;;;;3.65;3.45;;;12.70;99.90;;;12.93;72.17;102803.59;4957451;29;20082;-69
2021/09/21 06:05:41;;;;;;;3.20;3.10;;;12.70;99.90;;;13.18;71.95;102811.13;4957128;29;20069;-68
2021/09/21 06:08:10;;;;;;;3.20;3.10;;;12.80;99.90;;;13.40;71.40;102821.25;4956011;29;20052;-68
2021/09/21 06:10:38;;;;;;;3.15;3.05;;;13.00;99.90;;;13.56;70.09;102822.38;4957067;29;20055;-68
2021/09/21 06:13:08;;;;;;;3.53;3.42;;;13.20;99.90;;;13.80;69.15;102832.47;4957350;29;20054;-69
2021/09/21 06:15:37;;;;;;;3.30;3.20;;;13.40;99.90;;;13.95;69.53;102825.59;4956977;29;20063;-68
2021/09/21 06:18:05;;;;;;;3.40;3.30;;;13.60;99.90;;;14.05;68.25;102815.97;4956949;29;20044;-67
2021/09/21 06:20:34;;;;;;;2.80;2.70;;;13.90;99.90;;;14.47;67.45;102848.44;4956925;29;20043;-68
2021/09/21 06:23:02;;;;;;;3.17;3.08;;;14.10;99.90;;;14.81;67.89;102845.25;4956819;29;20618;-68
2021/09/21 06:25:31;;;;;;;3.05;2.95;;;14.50;99.90;;;15.19;66.73;102850.94;4939708;29;20103;-68
2021/09/21 06:28:00;;;;;;;3.33;3.22;;;14.80;99.90;;;15.51;65.77;102857.44;4956779;29;20043;-68
2021/09/21 06:30:30;;;;;;;2.67;2.58;;;15.20;99.90;;;15.69;66.30;102859.34;4956757;29;20050;-68
2021/09/21 06:32:58;;;;;;;2.53;2.43;;;15.40;99.90;;;15.91;64.45;102858.63;4939610;29;20091;-69
2021/09/21 06:35:27;;;;;;;2.40;2.30;;;15.50;99.90;;;16.08;63.83;102856.91;4956548;29;20129;-70
2021/09/21 06:37:55;;;;;;;3.03;2.92;;;15.70;99.90;;;16.33;63.01;102858.81;4956625;28;20094;-69
2021/09/21 06:40:26;;;;;;;3.03;2.92;;;16.00;99.90;;;16.42;62.37;102861.50;4956564;29;20067;-70
2021/09/21 06:42:54;;;;;;;6.47;5.78;;;16.10;99.90;;;16.47;61.89;102869.53;4956620;29;20047;-70
2021/09/21 06:45:23;;;;;;;2.97;2.88;;;16.10;99.90;;;16.46;61.75;102871.31;4956542;29;20039;-70
2021/09/21 06:47:53;;;;;;;2.55;2.45;;;16.20;99.90;;;16.50;61.66;102872.25;4956619;29;20059;-72
2021/09/21 06:50:22;;;;;;;2.72;2.63;;;16.20;99.90;;;16.69;62.53;102880.34;4956711;29;20401;-71
2021/09/21 06:52:50;;;;;;;2.65;2.55;;;16.30;99.90;;;16.63;61.42;102895.44;4939186;29;20078;-71
2021/09/21 06:55:19;;;;;;;2.78;2.67;;;16.20;99.90;;;16.47;62.32;102877.56;4939218;29;20382;-71
2021/09/21 06:57:51;;;;;;;3.00;2.90;;;16.20;99.90;;;16.43;62.23;102819.66;4956155;29;20039;-70
2021/09/21 07:00:21;;;;;;;2.60;2.50;;;16.40;99.90;;;17.08;60.93;102891.09;4956219;29;20113;-71
2021/09/21 07:02:52;;;;;;;2.58;2.47;;;16.60;99.90;;;17.33;61.86;102889.34;4955054;29;20098;-70
2021/09/21 07:05:23;;;;;;;2.88;2.78;;;16.90;99.90;;;17.26;61.64;102844.75;4955999;29;20134;-70
2021/09/21 07:07:52;;;;;;;2.80;2.70;;;17.10;99.90;;;17.58;61.12;102883.13;4956011;29;20457;-71
2021/09/21 07:10:22;;;;;;;2.67;2.58;;;17.20;99.90;;;17.86;60.84;102900.03;4956181;29;20059;-72
2021/09/21 07:12:51;;;;;;;2.63;2.53;;;17.40;99.90;;;18.12;60.73;102903.53;4956259;29;20441;-73
2021/09/21 07:15:22;;;;;;;2.55;2.45;;;17.70;99.90;;;18.19;59.70;102899.97;4955647;29;20091;-73
2021/09/21 07:17:52;;;;;;;2.42;2.33;;;17.90;99.90;;;18.36;58.32;102907.91;4956181;29;20043;-73
2021/09/21 07:20:23;;;;;;;2.72;2.63;;;18.10;99.90;;;18.43;58.43;102926.69;4956158;29;20130;-72
2021/09/21 07:22:53;;;;;;;2.72;2.63;;;18.20;99.90;;;18.59;57.47;102923.06;4955725;29;20043;-73
2021/09/21 07:25:22;;;;;;;2.88;2.78;;;18.30;99.90;;;18.60;56.71;102906.06;4938371;29;20134;-75
2021/09/21 07:27:52;;;;;;;2.65;2.55;;;18.50;99.90;;;18.91;57.49;102929.13;4955627;29;20073;-71
2021/09/21 07:30:21;;;;;;;3.15;3.05;;;18.60;99.90;;;18.99;56.15;102938.94;4954686;29;20047;-70
2021/09/21 07:32:49;;;;;;;2.90;2.80;;;18.70;99.90;;;19.12;55.25;102940.63;4955902;29;20076;-76
2021/09/21 07:35:18;;;;;;;3.08;2.97;;;18.80;99.90;;;18.91;54.82;102915.72;4955512;29;20059;-77
2021/09/21 07:37:48;;;;;;;2.50;2.40;;;18.90;99.90;;;18.94;55.20;102896.03;4954535;29;20107;-75
2021/09/21 07:40:19;;;;;;;2.70;2.60;;;19.00;99.90;;;18.98;54.80;102910.31;4938515;29;20047;-76
2021/09/21 07:42:49;;;;;;;2.55;2.45;;;18.90;99.90;;;18.96;54.55;102899.59;4955554;29;20047;-76
2021/09/21 07:45:19;;;;;;;4.57;4.37;;;19.00;99.90;;;19.40;55.57;102959.25;4955309;29;20050;-77
2021/09/21 07:47:48;;;;;;;2.53;2.43;;;19.10;99.90;;;19.62;54.90;102962.66;4955986;29;20035;-77
2021/09/21 07:50:17;;;;;;;2.80;2.70;;;19.30;99.90;;;19.69;53.94;102941.13;4953661;28;20489;-77
2021/09/21 07:52:46;;;;;;;2.30;2.20;;;19.50;99.90;;;20.13;54.22;102969.38;4955394;29;20036;-76
2021/09/21 07:55:16;;;;;;;2.42;2.33;;;19.80;99.90;;;20.48;52.18;102962.69;4954213;29;20110;-71
2021/09/21 07:57:45;;;;;;;2.75;2.65;;;20.20;99.90;;;20.78;50.88;102976.69;4955543;29;20055;-71
2021/09/21 08:00:17;;;;;;;3.03;2.92;;;20.50;99.90;;;21.06;51.15;102980.84;4955080;29;20122;-71
2021/09/21 08:02:45;;;;;;;3.22;3.08;;;20.80;99.90;;;21.32;49.73;102978.66;4955236;29;20055;-71
2021/09/21 08:05:14;;;;;;;2.55;2.45;;;21.10;99.90;;;21.58;49.92;102975.56;4955088;29;20439;-71
2021/09/21 08:07:43;;;;;;;2.42;2.33;;;21.40;99.90;;;21.60;47.84;102979.13;4955452;29;20456;-71
2021/09/21 08:10:13;;;;;;;2.42;2.33;;;21.50;99.90;;;21.81;47.26;102971.59;4955197;29;20097;-71
2021/09/21 08:12:46;;;;;;;2.58;2.47;;;21.70;99.90;;;21.84;47.09;102974.22;4955731;29;20113;-71
2021/09/21 08:15:15;;;;;;;2.40;2.30;;;21.70;99.90;;;21.97;47.15;102964.13;4954840;29;20055;-71
2021/09/21 08:17:43;;;;;;;2.72;2.63;;;21.80;99.90;;;22.04;47.83;102965.78;4954965;29;20047;-71
2021/09/21 08:20:14;;;;;;;2.33;2.22;;;21.80;99.90;;;22.24;47.66;102974.41;4954918;29;20071;-72
2021/09/21 08:22:44;;;;;;;2.55;2.45;;;22.00;99.90;;;22.30;46.92;102983.25;4955136;29;20126;-71
2021/09/21 08:25:14;;;;;;;1.80;1.77;;;22.10;99.90;;;22.45;45.66;102980.25;4954630;29;20588;-71
2021/09/21 08:27:43;;;;;;;2.80;2.70;;;22.30;99.90;;;22.61;44.85;102975.47;4955020;29;20050;-71
2021/09/21 08:30:30;;;;;;;2.60;2.50;;;22.50;99.90;;;22.78;43.81;102985.94;4955131;29;20047;-71
2021/09/21 08:33:00;;;;;;;3.53;3.22;;;22.60;99.90;;;22.79;43.97;102958.00;4937676;29;20055;-71
2021/09/21 08:35:29;;;;;;;1.90;1.80;;;22.80;99.90;;;22.91;43.08;102976.63;4954654;29;20086;-71
2021/09/21 08:37:57;;;;;;;2.50;2.40;;;22.80;99.90;;;22.90;42.19;102974.88;4954641;29;20363;-71
2021/09/21 08:40:27;;;;;;;2.20;2.10;;;22.80;99.90;;;23.17;41.86;102985.06;4954572;29;20470;-70
2021/09/21 08:42:56;;;;;;;2.38;2.28;;;23.00;99.90;;;23.26;43.31;102979.44;4955269;29;20098;-71
2021/09/21 08:45:25;;;;;;;2.15;2.05;;;23.20;99.90;;;23.04;42.16;102987.13;4954943;29;20134;-71
2021/09/21 08:47:53;;;;;;;2.30;2.20;;;22.90;99.90;;;23.18;41.33;102987.72;4954588;29;20086;-71
2021/09/21 08:50:23;;;;;;;2.92;2.72;;;23.00;99.90;;;22.97;39.98;102984.59;4954276;29;20047;-71
2021/09/21 08:52:52;;;;;;;2.40;2.30;;;22.80;99.90;;;22.74;38.74;102949.13;4954480;29;20039;-71
2021/09/21 08:55:21;;;;;;;2.40;2.30;;;22.70;99.90;;;22.90;39.48;102967.63;4937184;29;20525;-71
2021/09/21 08:57:51;;;;;;;2.40;2.30;;;22.80;99.90;;;23.00;38.50;102985.41;4954091;29;20051;-70
2021/09/21 09:00:26;;;;;;;1.95;1.85;;;22.80;99.90;;;23.03;39.47;102988.06;4954343;29;20051;-71
2021/09/21 09:03:05;;;;;;;2.13;2.03;;;22.80;99.90;;;22.87;40.31;102958.72;4954039;28;20058;-71
2021/09/21 09:05:46;;;;;;;2.10;2.00;;;22.80;99.90;;;23.08;39.78;102974.44;4953982;29;20047;-70
2021/09/21 09:08:31;;;;;;;2.17;2.08;;;22.90;99.90;;;23.13;39.06;102995.00;4954293;29;20161;-71
2021/09/21 09:11:13;;;;;;;;;;;23.00;99.90;;;22.78;38.96;102969.72;4955031;29;20055;-71
2021/09/21 09:13:44;;;;;;;2.28;2.17;;;22.80;99.90;;;22.91;39.63;102969.44;4953966;29;19933;-72
2021/09/21 09:16:14;;;;;;;1.88;1.80;;;22.80;99.90;;;22.81;38.90;102970.56;4954181;29;20168;-71
2021/09/21 09:18:46;;;;;;;;;;;22.80;99.90;;;23.02;40.65;103004.28;4953070;29;20074;-71
2021/09/21 09:21:15;;;;;;;2.17;2.08;;;22.70;99.90;;;23.17;41.27;102991.31;4953898;29;19950;-71
2021/09/21 09:23:50;;;;;;;2.40;2.30;;;22.80;99.90;;;22.91;39.75;102953.22;4954193;29;20142;-71
2021/09/21 09:26:20;;;;;;;8.13;2.45;;;22.90;99.90;;;22.88;40.41;102982.97;4952810;29;20102;-71
2021/09/21 09:28:52;;;;;;;;;;;22.70;99.90;;;23.09;40.83;102990.59;4937263;29;20497;-71
2021/09/21 09:31:26;;;;;;;5.30;5.00;;;22.80;99.90;;;23.13;40.10;102995.00;4953906;29;19922;-71
2021/09/21 09:34:10;;;;;;;2.08;1.98;;;22.80;99.90;;;23.26;41.13;102999.25;4954125;29;20094;-71
2021/09/21 09:36:50;;;;;;;2.40;2.30;;;22.90;99.90;;;23.40;40.74;102985.44;4953870;29;20051;-71
2021/09/21 09:39:23;;;;;;;2.10;2.00;;;23.20;99.90;;;23.63;39.09;103001.09;4953903;29;20110;-71
2021/09/21 09:41:56;;;;;;;2.08;1.98;;;23.40;99.90;;;23.55;39.11;102976.06;4936733;29;20559;-71
2021/09/21 09:44:29;;;;;;;1.73;1.73;;;23.40;99.90;;;23.91;39.80;103003.06;4953914;29;20039;-71
2021/09/21 09:47:03;;;;;;;2.00;1.90;;;23.60;99.90;;;23.99;37.76;103003.75;4953814;29;20043;-70
2021/09/21 09:49:35;;;;;;;2.65;2.55;;;23.70;99.90;;;23.85;37.88;102997.81;4954331;29;20405;-70
2021/09/21 09:52:08;;;;;;;2.00;1.90;;;23.70;99.90;;;23.80;39.07;102988.94;4936669;29;20087;-70
2021/09/21 09:54:39;;;;;;;5.68;5.15;;;23.60;99.90;;;24.14;38.94;102978.13;4954247;29;20122;-71
2021/09/21 09:57:10;;;;;;;2.20;2.10;;;23.90;99.90;;;24.46;37.37;103001.63;4953563;29;20118;-71
2021/09/21 09:59:41;;;;;;;2.13;2.03;;;24.20;99.90;;;24.32;37.76;102998.41;4953548;29;20489;-71
2021/09/21 10:02:10;;;;;;;1.77;1.77;;;24.10;99.90;;;24.51;38.51;102995.13;4953526;29;20122;-71
2021/09/21 10:04:42;;;;;;;1.97;1.90;;;24.30;99.90;;;24.72;37.23;102997.25;4953551;29;20409;-70
2021/09/21 10:07:11;;;;;;;1.90;1.85;;;24.50;99.90;;;24.66;37.09;102973.03;4953473;29;20094;-71
2021/09/21 10:09:39;;;;;;;1.58;1.58;;;24.60;99.90;;;24.54;36.88;102989.66;4953746;29;20117;-71
2021/09/21 10:12:08;;;;;;;1.75;1.75;;;24.50;99.90;;;24.38;37.86;102990.13;4953566;29;20051;-71
2021/09/21 10:14:36;;;;;;;2.60;2.40;;;24.20;99.90;;;24.51;36.22;102997.84;4956350;28;20393;-71
2021/09/21 10:17:08;;;;;;;2.10;2.00;;;24.20;99.90;;;24.61;37.23;103002.06;4956812;29;20090;-70
2021/09/21 10:19:40;;;;;;;2.00;1.90;;;24.30;99.90;;;24.77;36.15;103002.56;4957012;29;20461;-72
2021/09/21 10:22:09;;;;;;;2.00;1.90;;;24.50;99.90;;;24.78;35.70;103005.22;4956800;29;20536;-71
2021/09/21 10:24:40;;;;;;;2.13;2.03;;;24.60;99.90;;;24.69;35.81;103004.56;4956638;29;20497;-72
2021/09/21 10:27:11;;;;;;;1.60;1.60;;;24.50;99.90;;;24.94;36.41;102994.81;4956995;29;20107;-71
2021/09/21 10:29:40;;;;;;;1.50;1.50;;;24.60;99.90;;;25.17;36.35;102994.09;4956977;29;20055;-71